sensor_id;sensor_type;location;lat;lon;timestamp;temperature;humidity
46378;DHT22;32083;47.360;9.650;2023-07-31T00:01:12;19.80;94.90
46378;DHT22;32083;47.360;9.650;2023-07-31T00:03:37;19.70;95.10
46378;DHT22;32083;47.360;9.650;2023-07-31T00:06:03;19.70;94.90
46378;DHT22;32083;47.360;9.650;2023-07-31T00:08:29;19.70;94.80
46378;DHT22;32083;47.360;9.650;2023-07-31T00:10:54;19.60;94.70
46378;DHT22;32083;47.360;9.650;2023-07-31T00:13:20;19.50;94.70
46378;DHT22;32083;47.360;9.650;2023-07-31T00:15:46;19.50;94.80
46378;DHT22;32083;47.360;9.650;2023-07-31T00:18:12;19.40;95.40
46378;DHT22;32083;47.360;9.650;2023-07-31T00:20:37;19.40;95.40
46378;DHT22;32083;47.360;9.650;2023-07-31T00:23:03;19.30;95.30
46378;DHT22;32083;47.360;9.650;2023-07-31T00:25:29;19.30;95.50
46378;DHT22;32083;47.360;9.650;2023-07-31T00:27:54;19.20;95.10
46378;DHT22;32083;47.360;9.650;2023-07-31T00:30:20;19.10;94.80
46378;DHT22;32083;47.360;9.650;2023-07-31T00:32:46;19.10;95.20
46378;DHT22;32083;47.360;9.650;2023-07-31T00:35:12;19.00;95.70
46378;DHT22;32083;47.360;9.650;2023-07-31T00:37:37;19.00;95.20
46378;DHT22;32083;47.360;9.650;2023-07-31T00:40:03;18.90;95.40
46378;DHT22;32083;47.360;9.650;2023-07-31T00:42:29;18.80;96.00
46378;DHT22;32083;47.360;9.650;2023-07-31T00:44:55;18.80;96.40
46378;DHT22;32083;47.360;9.650;2023-07-31T00:47:21;18.70;96.50
46378;DHT22;32083;47.360;9.650;2023-07-31T00:49:47;18.70;96.40
46378;DHT22;32083;47.360;9.650;2023-07-31T00:52:13;18.70;96.20
46378;DHT22;32083;47.360;9.650;2023-07-31T00:54:39;18.60;96.40
46378;DHT22;32083;47.360;9.650;2023-07-31T00:57:05;18.60;96.50
46378;DHT22;32083;47.360;9.650;2023-07-31T00:59:30;18.50;96.50
46378;DHT22;32083;47.360;9.650;2023-07-31T01:01:56;18.50;96.60
46378;DHT22;32083;47.360;9.650;2023-07-31T01:04:22;18.40;97.50
46378;DHT22;32083;47.360;9.650;2023-07-31T01:07:11;18.30;97.10
46378;DHT22;32083;47.360;9.650;2023-07-31T01:12:14;18.30;96.90
46378;DHT22;32083;47.360;9.650;2023-07-31T01:14:49;18.20;97.30
46378;DHT22;32083;47.360;9.650;2023-07-31T01:17:15;18.10;96.90
46378;DHT22;32083;47.360;9.650;2023-07-31T01:19:41;18.10;96.90
46378;DHT22;32083;47.360;9.650;2023-07-31T01:25:24;18.10;98.00
46378;DHT22;32083;47.360;9.650;2023-07-31T01:28:11;18.00;97.60
46378;DHT22;32083;47.360;9.650;2023-07-31T01:30:44;18.00;97.60
46378;DHT22;32083;47.360;9.650;2023-07-31T01:33:15;18.00;97.90
46378;DHT22;32083;47.360;9.650;2023-07-31T01:35:44;17.90;97.90
46378;DHT22;32083;47.360;9.650;2023-07-31T01:38:10;17.90;97.90
46378;DHT22;32083;47.360;9.650;2023-07-31T01:40:36;17.90;97.80
46378;DHT22;32083;47.360;9.650;2023-07-31T01:43:02;17.90;97.60
46378;DHT22;32083;47.360;9.650;2023-07-31T01:45:27;17.90;98.20
46378;DHT22;32083;47.360;9.650;2023-07-31T01:47:53;17.90;98.20
46378;DHT22;32083;47.360;9.650;2023-07-31T01:50:19;17.90;98.00
46378;DHT22;32083;47.360;9.650;2023-07-31T01:52:44;17.80;97.90
46378;DHT22;32083;47.360;9.650;2023-07-31T01:55:10;17.80;97.90
46378;DHT22;32083;47.360;9.650;2023-07-31T01:57:36;17.70;98.10
46378;DHT22;32083;47.360;9.650;2023-07-31T02:00:03;17.70;98.20
46378;DHT22;32083;47.360;9.650;2023-07-31T02:02:29;17.70;98.50
46378;DHT22;32083;47.360;9.650;2023-07-31T02:04:54;17.60;98.20
46378;DHT22;32083;47.360;9.650;2023-07-31T02:07:20;17.60;98.30
46378;DHT22;32083;47.360;9.650;2023-07-31T02:09:47;17.50;98.60
46378;DHT22;32083;47.360;9.650;2023-07-31T02:12:13;17.40;98.30
46378;DHT22;32083;47.360;9.650;2023-07-31T02:14:40;17.40;98.10
46378;DHT22;32083;47.360;9.650;2023-07-31T02:17:06;17.40;97.90
46378;DHT22;32083;47.360;9.650;2023-07-31T02:19:32;17.40;98.00
46378;DHT22;32083;47.360;9.650;2023-07-31T02:21:58;17.30;98.30
46378;DHT22;32083;47.360;9.650;2023-07-31T02:24:24;17.20;98.20
46378;DHT22;32083;47.360;9.650;2023-07-31T02:26:50;17.20;98.20
46378;DHT22;32083;47.360;9.650;2023-07-31T02:29:15;17.20;98.40
46378;DHT22;32083;47.360;9.650;2023-07-31T02:31:41;17.10;99.10
46378;DHT22;32083;47.360;9.650;2023-07-31T02:34:06;17.10;99.00
46378;DHT22;32083;47.360;9.650;2023-07-31T02:36:32;17.10;99.10
46378;DHT22;32083;47.360;9.650;2023-07-31T02:38:58;17.00;99.20
46378;DHT22;32083;47.360;9.650;2023-07-31T02:41:23;16.90;99.30
46378;DHT22;32083;47.360;9.650;2023-07-31T02:43:49;16.90;99.00
46378;DHT22;32083;47.360;9.650;2023-07-31T02:46:15;16.90;99.20
46378;DHT22;32083;47.360;9.650;2023-07-31T02:48:40;16.90;98.90
46378;DHT22;32083;47.360;9.650;2023-07-31T02:51:06;16.90;98.90
46378;DHT22;32083;47.360;9.650;2023-07-31T02:53:32;16.80;99.50
46378;DHT22;32083;47.360;9.650;2023-07-31T02:55:57;16.80;99.40
46378;DHT22;32083;47.360;9.650;2023-07-31T02:58:23;16.70;99.50
46378;DHT22;32083;47.360;9.650;2023-07-31T03:00:49;16.70;99.00
46378;DHT22;32083;47.360;9.650;2023-07-31T03:03:14;16.60;99.60
46378;DHT22;32083;47.360;9.650;2023-07-31T03:05:40;16.60;99.90
46378;DHT22;32083;47.360;9.650;2023-07-31T03:08:06;16.50;99.90
46378;DHT22;32083;47.360;9.650;2023-07-31T03:10:31;16.50;99.90
46378;DHT22;32083;47.360;9.650;2023-07-31T03:12:57;16.40;99.90
46378;DHT22;32083;47.360;9.650;2023-07-31T03:15:23;16.40;99.80
46378;DHT22;32083;47.360;9.650;2023-07-31T03:17:49;16.40;99.90
46378;DHT22;32083;47.360;9.650;2023-07-31T03:20:14;16.40;99.90
46378;DHT22;32083;47.360;9.650;2023-07-31T03:22:40;16.40;99.90
46378;DHT22;32083;47.360;9.650;2023-07-31T03:25:06;16.40;99.90
46378;DHT22;32083;47.360;9.650;2023-07-31T03:27:32;16.40;99.90
46378;DHT22;32083;47.360;9.650;2023-07-31T03:29:57;16.40;99.90
46378;DHT22;32083;47.360;9.650;2023-07-31T03:32:24;16.40;99.90
46378;DHT22;32083;47.360;9.650;2023-07-31T03:34:50;16.40;99.90
46378;DHT22;32083;47.360;9.650;2023-07-31T03:37:15;16.30;99.90
46378;DHT22;32083;47.360;9.650;2023-07-31T03:39:41;16.30;99.60
46378;DHT22;32083;47.360;9.650;2023-07-31T03:42:07;16.30;99.90
46378;DHT22;32083;47.360;9.650;2023-07-31T03:44:32;16.20;99.90
46378;DHT22;32083;47.360;9.650;2023-07-31T03:46:58;16.20;99.90
46378;DHT22;32083;47.360;9.650;2023-07-31T03:49:24;16.30;99.90
46378;DHT22;32083;47.360;9.650;2023-07-31T03:51:50;16.20;99.90
46378;DHT22;32083;47.360;9.650;2023-07-31T03:54:15;16.20;99.90
46378;DHT22;32083;47.360;9.650;2023-07-31T03:56:41;16.20;99.90
46378;DHT22;32083;47.360;9.650;2023-07-31T03:59:07;16.20;99.90
46378;DHT22;32083;47.360;9.650;2023-07-31T04:01:33;16.20;99.90
46378;DHT22;32083;47.360;9.650;2023-07-31T04:03:58;16.20;99.90
46378;DHT22;32083;47.360;9.650;2023-07-31T04:06:24;16.20;99.90
46378;DHT22;32083;47.360;9.650;2023-07-31T04:08:49;16.20;99.90
46378;DHT22;32083;47.360;9.650;2023-07-31T04:11:15;16.20;99.90
46378;DHT22;32083;47.360;9.650;2023-07-31T04:13:41;16.20;99.90
46378;DHT22;32083;47.360;9.650;2023-07-31T04:16:06;16.20;99.90
46378;DHT22;32083;47.360;9.650;2023-07-31T04:18:32;16.20;99.90
46378;DHT22;32083;47.360;9.650;2023-07-31T04:20:58;16.30;99.90
46378;DHT22;32083;47.360;9.650;2023-07-31T04:23:27;16.30;99.90
46378;DHT22;32083;47.360;9.650;2023-07-31T04:25:52;16.30;99.90
46378;DHT22;32083;47.360;9.650;2023-07-31T04:28:18;16.30;99.90
46378;DHT22;32083;47.360;9.650;2023-07-31T04:30:44;16.30;99.90
46378;DHT22;32083;47.360;9.650;2023-07-31T04:33:09;16.30;99.90
46378;DHT22;32083;47.360;9.650;2023-07-31T04:35:35;16.40;99.90
46378;DHT22;32083;47.360;9.650;2023-07-31T04:38:01;16.40;99.90
46378;DHT22;32083;47.360;9.650;2023-07-31T04:40:26;16.30;99.90
46378;DHT22;32083;47.360;9.650;2023-07-31T04:42:52;16.30;99.90
46378;DHT22;32083;47.360;9.650;2023-07-31T04:45:18;16.40;99.90
46378;DHT22;32083;47.360;9.650;2023-07-31T04:47:44;16.40;99.90
46378;DHT22;32083;47.360;9.650;2023-07-31T04:50:09;16.50;99.90
46378;DHT22;32083;47.360;9.650;2023-07-31T04:52:35;16.50;99.90
46378;DHT22;32083;47.360;9.650;2023-07-31T04:55:01;16.60;99.90
46378;DHT22;32083;47.360;9.650;2023-07-31T04:57:27;16.70;99.90
46378;DHT22;32083;47.360;9.650;2023-07-31T04:59:52;16.80;99.90
46378;DHT22;32083;47.360;9.650;2023-07-31T05:02:18;16.90;99.90
46378;DHT22;32083;47.360;9.650;2023-07-31T05:04:44;16.90;99.90
46378;DHT22;32083;47.360;9.650;2023-07-31T05:07:10;17.00;99.90
46378;DHT22;32083;47.360;9.650;2023-07-31T05:09:36;17.10;99.90
46378;DHT22;32083;47.360;9.650;2023-07-31T05:12:03;17.10;99.90
46378;DHT22;32083;47.360;9.650;2023-07-31T05:14:29;17.20;99.90
46378;DHT22;32083;47.360;9.650;2023-07-31T05:16:55;17.20;99.90
46378;DHT22;32083;47.360;9.650;2023-07-31T05:19:21;17.20;99.90
46378;DHT22;32083;47.360;9.650;2023-07-31T05:21:46;17.20;99.90
46378;DHT22;32083;47.360;9.650;2023-07-31T05:24:12;17.20;99.90
46378;DHT22;32083;47.360;9.650;2023-07-31T05:26:38;17.30;99.90
46378;DHT22;32083;47.360;9.650;2023-07-31T05:29:03;17.30;99.90
46378;DHT22;32083;47.360;9.650;2023-07-31T05:31:29;17.40;99.90
46378;DHT22;32083;47.360;9.650;2023-07-31T05:33:55;17.50;99.90
46378;DHT22;32083;47.360;9.650;2023-07-31T05:36:20;17.60;99.90
46378;DHT22;32083;47.360;9.650;2023-07-31T05:38:46;17.60;99.90
46378;DHT22;32083;47.360;9.650;2023-07-31T05:41:12;17.60;99.90
46378;DHT22;32083;47.360;9.650;2023-07-31T05:43:38;17.50;99.90
46378;DHT22;32083;47.360;9.650;2023-07-31T05:46:04;17.50;99.90
46378;DHT22;32083;47.360;9.650;2023-07-31T05:48:30;17.60;99.90
46378;DHT22;32083;47.360;9.650;2023-07-31T05:50:56;17.60;99.90
46378;DHT22;32083;47.360;9.650;2023-07-31T05:53:23;17.50;99.90
46378;DHT22;32083;47.360;9.650;2023-07-31T05:55:49;17.50;99.90
46378;DHT22;32083;47.360;9.650;2023-07-31T05:58:14;17.50;99.80
46378;DHT22;32083;47.360;9.650;2023-07-31T06:00:40;17.60;99.90
46378;DHT22;32083;47.360;9.650;2023-07-31T06:03:06;17.60;99.90
46378;DHT22;32083;47.360;9.650;2023-07-31T06:05:42;17.60;99.90
46378;DHT22;32083;47.360;9.650;2023-07-31T06:08:08;17.70;99.90
46378;DHT22;32083;47.360;9.650;2023-07-31T06:10:33;17.70;99.90
46378;DHT22;32083;47.360;9.650;2023-07-31T06:13:00;17.70;99.90
46378;DHT22;32083;47.360;9.650;2023-07-31T06:15:25;17.70;99.90
46378;DHT22;32083;47.360;9.650;2023-07-31T06:17:51;17.80;99.90
46378;DHT22;32083;47.360;9.650;2023-07-31T06:20:17;17.90;99.90
46378;DHT22;32083;47.360;9.650;2023-07-31T06:22:42;18.00;99.90
46378;DHT22;32083;47.360;9.650;2023-07-31T06:25:08;18.10;99.90
46378;DHT22;32083;47.360;9.650;2023-07-31T06:27:34;18.20;99.90
46378;DHT22;32083;47.360;9.650;2023-07-31T06:30:00;18.30;99.90
46378;DHT22;32083;47.360;9.650;2023-07-31T06:32:26;18.40;99.90
46378;DHT22;32083;47.360;9.650;2023-07-31T06:34:51;18.40;99.90
46378;DHT22;32083;47.360;9.650;2023-07-31T06:37:17;18.50;99.90
46378;DHT22;32083;47.360;9.650;2023-07-31T06:39:43;18.60;99.90
46378;DHT22;32083;47.360;9.650;2023-07-31T06:42:08;18.60;99.90
46378;DHT22;32083;47.360;9.650;2023-07-31T06:44:34;18.70;99.90
46378;DHT22;32083;47.360;9.650;2023-07-31T06:47:00;18.80;99.70
46378;DHT22;32083;47.360;9.650;2023-07-31T06:49:25;18.80;99.40
46378;DHT22;32083;47.360;9.650;2023-07-31T06:51:51;18.70;99.40
46378;DHT22;32083;47.360;9.650;2023-07-31T06:54:17;18.80;99.90
46378;DHT22;32083;47.360;9.650;2023-07-31T06:56:44;18.80;99.50
46378;DHT22;32083;47.360;9.650;2023-07-31T06:59:10;18.80;99.30
46378;DHT22;32083;47.360;9.650;2023-07-31T07:01:36;18.80;99.40
46378;DHT22;32083;47.360;9.650;2023-07-31T07:04:01;18.70;99.30
46378;DHT22;32083;47.360;9.650;2023-07-31T07:06:27;18.80;99.50
46378;DHT22;32083;47.360;9.650;2023-07-31T07:08:53;18.80;99.40
46378;DHT22;32083;47.360;9.650;2023-07-31T07:11:18;19.00;99.60
46378;DHT22;32083;47.360;9.650;2023-07-31T07:13:44;19.00;99.10
46378;DHT22;32083;47.360;9.650;2023-07-31T07:16:10;19.10;99.20
46378;DHT22;32083;47.360;9.650;2023-07-31T07:18:36;19.20;99.50
46378;DHT22;32083;47.360;9.650;2023-07-31T07:21:01;19.40;99.80
46378;DHT22;32083;47.360;9.650;2023-07-31T07:23:28;19.50;99.40
46378;DHT22;32083;47.360;9.650;2023-07-31T07:25:54;19.60;99.00
46378;DHT22;32083;47.360;9.650;2023-07-31T07:28:19;19.70;99.10
46378;DHT22;32083;47.360;9.650;2023-07-31T07:30:50;19.70;98.90
46378;DHT22;32083;47.360;9.650;2023-07-31T07:33:18;19.70;98.50
46378;DHT22;32083;47.360;9.650;2023-07-31T07:35:44;19.70;98.10
46378;DHT22;32083;47.360;9.650;2023-07-31T07:38:10;19.70;98.80
46378;DHT22;32083;47.360;9.650;2023-07-31T07:40:39;19.80;97.90
46378;DHT22;32083;47.360;9.650;2023-07-31T07:43:05;19.90;98.50
46378;DHT22;32083;47.360;9.650;2023-07-31T07:45:31;20.00;98.20
46378;DHT22;32083;47.360;9.650;2023-07-31T07:47:57;20.10;97.90
46378;DHT22;32083;47.360;9.650;2023-07-31T07:50:25;20.30;98.10
46378;DHT22;32083;47.360;9.650;2023-07-31T07:52:50;20.40;97.60
46378;DHT22;32083;47.360;9.650;2023-07-31T07:55:22;20.40;97.50
46378;DHT22;32083;47.360;9.650;2023-07-31T07:57:47;20.40;97.70
46378;DHT22;32083;47.360;9.650;2023-07-31T08:00:17;20.20;97.40
46378;DHT22;32083;47.360;9.650;2023-07-31T08:02:45;20.10;97.40
46378;DHT22;32083;47.360;9.650;2023-07-31T08:05:21;20.10;97.50
46378;DHT22;32083;47.360;9.650;2023-07-31T08:07:48;20.30;97.30
46378;DHT22;32083;47.360;9.650;2023-07-31T08:10:15;20.30;97.00
46378;DHT22;32083;47.360;9.650;2023-07-31T08:12:40;20.20;96.20
46378;DHT22;32083;47.360;9.650;2023-07-31T08:15:07;20.20;96.20
46378;DHT22;32083;47.360;9.650;2023-07-31T08:17:33;20.50;97.30
46378;DHT22;32083;47.360;9.650;2023-07-31T08:19:59;20.60;97.20
46378;DHT22;32083;47.360;9.650;2023-07-31T08:22:25;20.80;96.50
46378;DHT22;32083;47.360;9.650;2023-07-31T08:24:52;21.00;96.50
46378;DHT22;32083;47.360;9.650;2023-07-31T08:27:18;21.10;96.90
46378;DHT22;32083;47.360;9.650;2023-07-31T08:29:44;21.10;96.00
46378;DHT22;32083;47.360;9.650;2023-07-31T08:32:09;21.20;96.00
46378;DHT22;32083;47.360;9.650;2023-07-31T08:34:35;21.20;94.90
46378;DHT22;32083;47.360;9.650;2023-07-31T08:37:01;21.30;94.80
46378;DHT22;32083;47.360;9.650;2023-07-31T08:39:28;21.40;94.80
46378;DHT22;32083;47.360;9.650;2023-07-31T08:41:58;21.20;93.10
46378;DHT22;32083;47.360;9.650;2023-07-31T08:44:29;21.20;93.70
46378;DHT22;32083;47.360;9.650;2023-07-31T08:47:05;21.20;93.70
46378;DHT22;32083;47.360;9.650;2023-07-31T08:49:31;21.30;93.40
46378;DHT22;32083;47.360;9.650;2023-07-31T08:51:58;21.50;92.70
46378;DHT22;32083;47.360;9.650;2023-07-31T08:54:24;21.50;93.00
46378;DHT22;32083;47.360;9.650;2023-07-31T08:56:50;21.80;94.00
46378;DHT22;32083;47.360;9.650;2023-07-31T08:59:22;21.80;93.90
46378;DHT22;32083;47.360;9.650;2023-07-31T09:01:50;21.60;92.40
46378;DHT22;32083;47.360;9.650;2023-07-31T09:04:20;21.60;92.70
46378;DHT22;32083;47.360;9.650;2023-07-31T09:06:51;21.40;92.90
46378;DHT22;32083;47.360;9.650;2023-07-31T09:09:24;21.40;93.30
46378;DHT22;32083;47.360;9.650;2023-07-31T09:12:11;21.50;93.10
46378;DHT22;32083;47.360;9.650;2023-07-31T09:14:41;21.50;92.60
46378;DHT22;32083;47.360;9.650;2023-07-31T09:17:07;21.40;92.10
46378;DHT22;32083;47.360;9.650;2023-07-31T09:19:35;21.60;92.60
46378;DHT22;32083;47.360;9.650;2023-07-31T09:22:05;21.60;91.90
46378;DHT22;32083;47.360;9.650;2023-07-31T09:24:32;21.60;92.70
46378;DHT22;32083;47.360;9.650;2023-07-31T09:27:45;21.90;93.20
46378;DHT22;32083;47.360;9.650;2023-07-31T09:34:00;21.70;92.40
46378;DHT22;32083;47.360;9.650;2023-07-31T09:36:29;21.70;92.00
46378;DHT22;32083;47.360;9.650;2023-07-31T09:39:02;21.70;92.90
46378;DHT22;32083;47.360;9.650;2023-07-31T09:41:29;21.60;92.50
46378;DHT22;32083;47.360;9.650;2023-07-31T09:43:55;21.60;92.80
46378;DHT22;32083;47.360;9.650;2023-07-31T09:46:21;21.80;92.70
46378;DHT22;32083;47.360;9.650;2023-07-31T09:48:47;21.90;92.60
46378;DHT22;32083;47.360;9.650;2023-07-31T09:51:15;21.80;91.80
46378;DHT22;32083;47.360;9.650;2023-07-31T09:53:41;21.70;92.60
46378;DHT22;32083;47.360;9.650;2023-07-31T09:56:08;21.70;92.10
46378;DHT22;32083;47.360;9.650;2023-07-31T09:58:35;21.70;92.50
46378;DHT22;32083;47.360;9.650;2023-07-31T10:01:02;22.00;92.70
46378;DHT22;32083;47.360;9.650;2023-07-31T10:03:29;21.90;92.70
46378;DHT22;32083;47.360;9.650;2023-07-31T10:05:57;21.80;91.80
46378;DHT22;32083;47.360;9.650;2023-07-31T10:08:28;21.90;92.50
46378;DHT22;32083;47.360;9.650;2023-07-31T10:10:58;22.00;92.30
46378;DHT22;32083;47.360;9.650;2023-07-31T10:13:25;22.10;91.80
46378;DHT22;32083;47.360;9.650;2023-07-31T10:15:53;22.00;92.50
46378;DHT22;32083;47.360;9.650;2023-07-31T10:18:20;22.10;92.30
46378;DHT22;32083;47.360;9.650;2023-07-31T10:20:47;22.00;91.70
46378;DHT22;32083;47.360;9.650;2023-07-31T10:23:13;22.00;92.20
46378;DHT22;32083;47.360;9.650;2023-07-31T10:25:42;22.00;91.80
46378;DHT22;32083;47.360;9.650;2023-07-31T10:28:09;22.10;92.40
46378;DHT22;32083;47.360;9.650;2023-07-31T10:30:36;22.20;91.60
46378;DHT22;32083;47.360;9.650;2023-07-31T10:33:04;22.30;92.60
46378;DHT22;32083;47.360;9.650;2023-07-31T10:35:31;22.30;92.60
46378;DHT22;32083;47.360;9.650;2023-07-31T10:38:12;22.30;92.30
46378;DHT22;32083;47.360;9.650;2023-07-31T10:40:38;22.40;92.70
46378;DHT22;32083;47.360;9.650;2023-07-31T10:43:05;22.40;91.60
46378;DHT22;32083;47.360;9.650;2023-07-31T10:48:05;22.40;91.70
46378;DHT22;32083;47.360;9.650;2023-07-31T10:50:32;22.50;92.20
46378;DHT22;32083;47.360;9.650;2023-07-31T10:52:59;22.60;92.20
46378;DHT22;32083;47.360;9.650;2023-07-31T10:55:41;22.60;91.30
46378;DHT22;32083;47.360;9.650;2023-07-31T10:58:18;22.60;91.20
46378;DHT22;32083;47.360;9.650;2023-07-31T11:00:45;22.60;91.60
46378;DHT22;32083;47.360;9.650;2023-07-31T11:03:16;22.70;91.80
46378;DHT22;32083;47.360;9.650;2023-07-31T11:06:01;22.80;91.20
46378;DHT22;32083;47.360;9.650;2023-07-31T11:08:32;22.70;91.60
46378;DHT22;32083;47.360;9.650;2023-07-31T11:15:57;22.70;92.10
46378;DHT22;32083;47.360;9.650;2023-07-31T11:18:24;22.70;90.90
46378;DHT22;32083;47.360;9.650;2023-07-31T11:20:51;22.80;91.20
46378;DHT22;32083;47.360;9.650;2023-07-31T11:23:18;22.80;91.80
46378;DHT22;32083;47.360;9.650;2023-07-31T11:25:44;22.80;92.70
46378;DHT22;32083;47.360;9.650;2023-07-31T11:28:12;22.80;92.20
46378;DHT22;32083;47.360;9.650;2023-07-31T11:30:39;22.90;92.60
46378;DHT22;32083;47.360;9.650;2023-07-31T11:33:07;23.00;92.40
46378;DHT22;32083;47.360;9.650;2023-07-31T11:35:42;23.10;91.70
46378;DHT22;32083;47.360;9.650;2023-07-31T11:38:27;23.10;92.10
46378;DHT22;32083;47.360;9.650;2023-07-31T11:40:53;23.00;91.00
46378;DHT22;32083;47.360;9.650;2023-07-31T11:43:20;23.20;91.50
46378;DHT22;32083;47.360;9.650;2023-07-31T11:45:48;23.30;92.30
46378;DHT22;32083;47.360;9.650;2023-07-31T11:48:25;23.40;92.60
46378;DHT22;32083;47.360;9.650;2023-07-31T11:50:58;23.40;92.90
46378;DHT22;32083;47.360;9.650;2023-07-31T11:53:31;23.40;91.50
46378;DHT22;32083;47.360;9.650;2023-07-31T11:56:00;23.40;91.50
46378;DHT22;32083;47.360;9.650;2023-07-31T11:58:27;23.40;91.30
46378;DHT22;32083;47.360;9.650;2023-07-31T12:00:54;23.50;91.30
46378;DHT22;32083;47.360;9.650;2023-07-31T12:03:20;23.60;91.90
46378;DHT22;32083;47.360;9.650;2023-07-31T12:05:47;23.80;90.70
46378;DHT22;32083;47.360;9.650;2023-07-31T12:08:14;24.00;90.90
46378;DHT22;32083;47.360;9.650;2023-07-31T12:10:41;24.30;91.10
46378;DHT22;32083;47.360;9.650;2023-07-31T12:13:09;24.40;90.40
46378;DHT22;32083;47.360;9.650;2023-07-31T12:15:43;24.60;90.80
46378;DHT22;32083;47.360;9.650;2023-07-31T12:18:14;24.70;91.00
46378;DHT22;32083;47.360;9.650;2023-07-31T12:20:44;24.60;90.80
46378;DHT22;32083;47.360;9.650;2023-07-31T12:23:21;24.50;90.90
46378;DHT22;32083;47.360;9.650;2023-07-31T12:26:11;24.30;90.20
46378;DHT22;32083;47.360;9.650;2023-07-31T12:31:10;24.30;91.30
46378;DHT22;32083;47.360;9.650;2023-07-31T12:33:38;24.30;91.30
46378;DHT22;32083;47.360;9.650;2023-07-31T12:36:09;24.20;91.30
46378;DHT22;32083;47.360;9.650;2023-07-31T12:38:35;24.20;91.00
46378;DHT22;32083;47.360;9.650;2023-07-31T12:41:01;24.10;91.20
46378;DHT22;32083;47.360;9.650;2023-07-31T12:43:27;24.10;90.90
46378;DHT22;32083;47.360;9.650;2023-07-31T12:45:56;24.00;90.90
46378;DHT22;32083;47.360;9.650;2023-07-31T12:48:22;24.00;91.10
46378;DHT22;32083;47.360;9.650;2023-07-31T12:50:48;23.90;91.30
46378;DHT22;32083;47.360;9.650;2023-07-31T12:53:15;23.80;91.00
46378;DHT22;32083;47.360;9.650;2023-07-31T12:55:41;23.80;91.50
46378;DHT22;32083;47.360;9.650;2023-07-31T12:58:07;24.10;90.90
46378;DHT22;32083;47.360;9.650;2023-07-31T13:00:33;24.20;90.70
46378;DHT22;32083;47.360;9.650;2023-07-31T13:03:00;24.20;91.40
46378;DHT22;32083;47.360;9.650;2023-07-31T13:05:27;24.50;90.80
46378;DHT22;32083;47.360;9.650;2023-07-31T13:07:53;24.40;91.10
46378;DHT22;32083;47.360;9.650;2023-07-31T13:10:19;24.20;90.40
46378;DHT22;32083;47.360;9.650;2023-07-31T13:12:46;24.20;90.40
46378;DHT22;32083;47.360;9.650;2023-07-31T13:15:12;24.00;90.60
46378;DHT22;32083;47.360;9.650;2023-07-31T13:17:37;24.00;90.80
46378;DHT22;32083;47.360;9.650;2023-07-31T13:20:04;23.90;90.60
46378;DHT22;32083;47.360;9.650;2023-07-31T13:22:30;24.00;90.70
46378;DHT22;32083;47.360;9.650;2023-07-31T13:24:56;24.20;90.70
46378;DHT22;32083;47.360;9.650;2023-07-31T13:27:22;24.30;90.50
46378;DHT22;32083;47.360;9.650;2023-07-31T13:29:50;24.50;89.80
46378;DHT22;32083;47.360;9.650;2023-07-31T13:32:17;24.40;90.20
46378;DHT22;32083;47.360;9.650;2023-07-31T13:34:43;24.40;90.20
46378;DHT22;32083;47.360;9.650;2023-07-31T13:37:09;24.40;89.90
46378;DHT22;32083;47.360;9.650;2023-07-31T13:39:35;24.50;90.30
46378;DHT22;32083;47.360;9.650;2023-07-31T13:42:05;24.40;90.20
46378;DHT22;32083;47.360;9.650;2023-07-31T13:44:35;24.40;90.10
46378;DHT22;32083;47.360;9.650;2023-07-31T13:47:01;24.40;89.70
46378;DHT22;32083;47.360;9.650;2023-07-31T13:49:28;24.20;89.10
46378;DHT22;32083;47.360;9.650;2023-07-31T13:51:54;24.20;90.10
46378;DHT22;32083;47.360;9.650;2023-07-31T13:54:20;24.00;88.80
46378;DHT22;32083;47.360;9.650;2023-07-31T13:56:46;24.10;89.90
46378;DHT22;32083;47.360;9.650;2023-07-31T13:59:12;24.00;90.00
46378;DHT22;32083;47.360;9.650;2023-07-31T14:01:39;24.00;90.20
46378;DHT22;32083;47.360;9.650;2023-07-31T14:04:05;24.00;90.70
46378;DHT22;32083;47.360;9.650;2023-07-31T14:06:31;24.00;90.70
46378;DHT22;32083;47.360;9.650;2023-07-31T14:08:57;23.90;90.50
46378;DHT22;32083;47.360;9.650;2023-07-31T14:11:23;23.90;89.80
46378;DHT22;32083;47.360;9.650;2023-07-31T14:13:50;23.80;89.20
46378;DHT22;32083;47.360;9.650;2023-07-31T14:16:16;23.90;89.40
46378;DHT22;32083;47.360;9.650;2023-07-31T14:18:43;23.80;89.80
46378;DHT22;32083;47.360;9.650;2023-07-31T14:21:09;23.80;89.70
46378;DHT22;32083;47.360;9.650;2023-07-31T14:23:35;23.80;89.80
46378;DHT22;32083;47.360;9.650;2023-07-31T14:26:00;23.80;89.30
46378;DHT22;32083;47.360;9.650;2023-07-31T14:28:26;23.80;90.00
46378;DHT22;32083;47.360;9.650;2023-07-31T14:30:52;23.80;89.40
46378;DHT22;32083;47.360;9.650;2023-07-31T14:33:18;23.80;89.90
46378;DHT22;32083;47.360;9.650;2023-07-31T14:35:44;23.90;90.20
46378;DHT22;32083;47.360;9.650;2023-07-31T14:38:10;24.00;90.40
46378;DHT22;32083;47.360;9.650;2023-07-31T14:40:36;24.00;89.90
46378;DHT22;32083;47.360;9.650;2023-07-31T14:43:04;23.90;89.80
46378;DHT22;32083;47.360;9.650;2023-07-31T14:45:30;23.90;88.20
46378;DHT22;32083;47.360;9.650;2023-07-31T14:47:56;23.90;88.50
46378;DHT22;32083;47.360;9.650;2023-07-31T14:50:22;23.90;88.50
46378;DHT22;32083;47.360;9.650;2023-07-31T14:52:49;23.80;88.00
46378;DHT22;32083;47.360;9.650;2023-07-31T14:55:15;23.90;88.40
46378;DHT22;32083;47.360;9.650;2023-07-31T14:57:41;24.00;89.80
46378;DHT22;32083;47.360;9.650;2023-07-31T15:00:07;24.00;89.20
46378;DHT22;32083;47.360;9.650;2023-07-31T15:02:37;24.20;89.90
46378;DHT22;32083;47.360;9.650;2023-07-31T15:05:04;24.10;88.00
46378;DHT22;32083;47.360;9.650;2023-07-31T15:07:30;24.10;89.90
46378;DHT22;32083;47.360;9.650;2023-07-31T15:09:56;24.20;89.60
46378;DHT22;32083;47.360;9.650;2023-07-31T15:12:22;24.20;89.70
46378;DHT22;32083;47.360;9.650;2023-07-31T15:14:51;24.30;90.00
46378;DHT22;32083;47.360;9.650;2023-07-31T15:17:17;24.30;86.30
46378;DHT22;32083;47.360;9.650;2023-07-31T15:19:44;24.20;86.60
46378;DHT22;32083;47.360;9.650;2023-07-31T15:22:10;24.30;87.40
46378;DHT22;32083;47.360;9.650;2023-07-31T15:24:39;24.30;87.40
46378;DHT22;32083;47.360;9.650;2023-07-31T15:27:05;24.30;86.80
46378;DHT22;32083;47.360;9.650;2023-07-31T15:29:31;24.30;87.30
46378;DHT22;32083;47.360;9.650;2023-07-31T15:31:58;24.30;87.40
46378;DHT22;32083;47.360;9.650;2023-07-31T15:34:24;24.40;87.50
46378;DHT22;32083;47.360;9.650;2023-07-31T15:36:50;24.50;88.50
46378;DHT22;32083;47.360;9.650;2023-07-31T15:39:16;24.50;89.70
46378;DHT22;32083;47.360;9.650;2023-07-31T15:41:42;24.50;88.20
46378;DHT22;32083;47.360;9.650;2023-07-31T15:44:08;24.50;87.40
46378;DHT22;32083;47.360;9.650;2023-07-31T15:46:34;24.50;85.90
46378;DHT22;32083;47.360;9.650;2023-07-31T15:49:00;24.40;88.40